sensor_id;sensor_type;location;lat;lon;timestamp;temperature;humidity
19665;DHT22;9980;51.020;7.772;2023-08-01T00:01:39;19.80;99.90
19665;DHT22;9980;51.020;7.772;2023-08-01T00:04:07;19.80;99.90
19665;DHT22;9980;51.020;7.772;2023-08-01T00:06:43;19.80;99.90
19665;DHT22;9980;51.020;7.772;2023-08-01T00:09:12;19.80;99.90
19665;DHT22;9980;51.020;7.772;2023-08-01T00:11:39;19.80;99.90
19665;DHT22;9980;51.020;7.772;2023-08-01T00:14:06;19.80;99.90
19665;DHT22;9980;51.020;7.772;2023-08-01T00:16:33;19.80;99.90
19665;DHT22;9980;51.020;7.772;2023-08-01T00:19:01;19.80;99.90
19665;DHT22;9980;51.020;7.772;2023-08-01T00:21:31;19.80;99.90
19665;DHT22;9980;51.020;7.772;2023-08-01T00:23:58;19.80;99.90
19665;DHT22;9980;51.020;7.772;2023-08-01T00:26:25;19.80;99.90
19665;DHT22;9980;51.020;7.772;2023-08-01T00:28:52;19.80;99.90
19665;DHT22;9980;51.020;7.772;2023-08-01T00:31:19;19.80;99.90
19665;DHT22;9980;51.020;7.772;2023-08-01T00:33:46;19.80;99.90
19665;DHT22;9980;51.020;7.772;2023-08-01T00:36:13;19.80;99.90
19665;DHT22;9980;51.020;7.772;2023-08-01T00:38:40;19.80;99.90
19665;DHT22;9980;51.020;7.772;2023-08-01T00:41:10;19.80;99.90
19665;DHT22;9980;51.020;7.772;2023-08-01T00:43:37;19.80;99.90
19665;DHT22;9980;51.020;7.772;2023-08-01T00:46:05;19.80;99.90
19665;DHT22;9980;51.020;7.772;2023-08-01T00:48:33;19.80;99.90
19665;DHT22;9980;51.020;7.772;2023-08-01T00:51:07;19.80;99.90
19665;DHT22;9980;51.020;7.772;2023-08-01T00:53:36;19.80;99.90
19665;DHT22;9980;51.020;7.772;2023-08-01T00:56:04;19.80;99.90
19665;DHT22;9980;51.020;7.772;2023-08-01T00:58:31;19.80;99.90
19665;DHT22;9980;51.020;7.772;2023-08-01T01:00:58;19.80;99.90
19665;DHT22;9980;51.020;7.772;2023-08-01T01:03:27;19.80;99.90
19665;DHT22;9980;51.020;7.772;2023-08-01T01:06:14;19.80;99.90
19665;DHT22;9980;51.020;7.772;2023-08-01T01:08:48;19.80;99.90
19665;DHT22;9980;51.020;7.772;2023-08-01T01:11:15;19.80;99.90
19665;DHT22;9980;51.020;7.772;2023-08-01T01:13:43;19.80;99.90
19665;DHT22;9980;51.020;7.772;2023-08-01T01:16:10;19.80;99.90
19665;DHT22;9980;51.020;7.772;2023-08-01T01:18:37;19.80;99.90
19665;DHT22;9980;51.020;7.772;2023-08-01T01:21:09;19.80;99.90
19665;DHT22;9980;51.020;7.772;2023-08-01T01:23:36;19.80;99.90
19665;DHT22;9980;51.020;7.772;2023-08-01T01:26:05;19.80;99.90
19665;DHT22;9980;51.020;7.772;2023-08-01T01:28:35;19.80;99.90
19665;DHT22;9980;51.020;7.772;2023-08-01T01:31:03;19.80;99.90
19665;DHT22;9980;51.020;7.772;2023-08-01T01:33:30;19.80;99.90
19665;DHT22;9980;51.020;7.772;2023-08-01T01:36:00;19.80;99.90
19665;DHT22;9980;51.020;7.772;2023-08-01T01:38:28;19.80;99.90
19665;DHT22;9980;51.020;7.772;2023-08-01T01:40:55;19.80;99.90
19665;DHT22;9980;51.020;7.772;2023-08-01T01:43:22;19.80;99.90
19665;DHT22;9980;51.020;7.772;2023-08-01T01:45:49;19.80;99.90
19665;DHT22;9980;51.020;7.772;2023-08-01T01:48:16;19.80;99.90
19665;DHT22;9980;51.020;7.772;2023-08-01T01:50:43;19.80;99.90
19665;DHT22;9980;51.020;7.772;2023-08-01T01:53:10;19.80;99.90
19665;DHT22;9980;51.020;7.772;2023-08-01T01:55:37;19.80;99.90
19665;DHT22;9980;51.020;7.772;2023-08-01T01:58:04;19.80;99.90
19665;DHT22;9980;51.020;7.772;2023-08-01T02:00:31;19.80;99.90
19665;DHT22;9980;51.020;7.772;2023-08-01T02:02:58;19.80;99.90
19665;DHT22;9980;51.020;7.772;2023-08-01T02:05:25;19.80;99.90
19665;DHT22;9980;51.020;7.772;2023-08-01T02:07:52;19.80;99.90
19665;DHT22;9980;51.020;7.772;2023-08-01T02:10:19;19.80;99.90
19665;DHT22;9980;51.020;7.772;2023-08-01T02:12:46;19.80;99.90
19665;DHT22;9980;51.020;7.772;2023-08-01T02:15:12;19.90;99.90
19665;DHT22;9980;51.020;7.772;2023-08-01T02:17:40;19.90;99.90
19665;DHT22;9980;51.020;7.772;2023-08-01T02:20:07;19.90;99.90
19665;DHT22;9980;51.020;7.772;2023-08-01T02:22:34;19.90;99.90
19665;DHT22;9980;51.020;7.772;2023-08-01T02:25:01;19.90;99.90
19665;DHT22;9980;51.020;7.772;2023-08-01T02:27:28;19.90;99.90
19665;DHT22;9980;51.020;7.772;2023-08-01T02:29:55;19.90;99.90
19665;DHT22;9980;51.020;7.772;2023-08-01T02:32:22;19.90;99.90
19665;DHT22;9980;51.020;7.772;2023-08-01T02:34:50;19.90;99.90
19665;DHT22;9980;51.020;7.772;2023-08-01T02:37:17;19.90;99.90
19665;DHT22;9980;51.020;7.772;2023-08-01T02:39:44;19.90;99.90
19665;DHT22;9980;51.020;7.772;2023-08-01T02:42:11;19.90;99.90
19665;DHT22;9980;51.020;7.772;2023-08-01T02:44:38;20.00;99.90
19665;DHT22;9980;51.020;7.772;2023-08-01T02:47:05;20.00;99.90
19665;DHT22;9980;51.020;7.772;2023-08-01T02:49:33;20.00;99.90
19665;DHT22;9980;51.020;7.772;2023-08-01T02:51:59;20.00;99.90
19665;DHT22;9980;51.020;7.772;2023-08-01T02:54:26;20.00;99.90
19665;DHT22;9980;51.020;7.772;2023-08-01T02:56:53;20.00;99.90
19665;DHT22;9980;51.020;7.772;2023-08-01T02:59:20;20.00;99.90
19665;DHT22;9980;51.020;7.772;2023-08-01T03:01:47;20.00;99.90
19665;DHT22;9980;51.020;7.772;2023-08-01T03:04:14;20.00;99.90
19665;DHT22;9980;51.020;7.772;2023-08-01T03:06:41;20.00;99.90
19665;DHT22;9980;51.020;7.772;2023-08-01T03:09:08;20.00;99.90
19665;DHT22;9980;51.020;7.772;2023-08-01T03:11:35;20.00;99.90
19665;DHT22;9980;51.020;7.772;2023-08-01T03:14:03;20.00;99.90
19665;DHT22;9980;51.020;7.772;2023-08-01T03:16:33;20.00;99.90
19665;DHT22;9980;51.020;7.772;2023-08-01T03:19:00;20.00;99.90
19665;DHT22;9980;51.020;7.772;2023-08-01T03:21:34;19.90;99.90
19665;DHT22;9980;51.020;7.772;2023-08-01T03:24:03;19.90;99.90
19665;DHT22;9980;51.020;7.772;2023-08-01T03:26:30;19.90;99.90
19665;DHT22;9980;51.020;7.772;2023-08-01T03:28:57;19.90;99.90
19665;DHT22;9980;51.020;7.772;2023-08-01T03:31:24;19.90;99.90
19665;DHT22;9980;51.020;7.772;2023-08-01T03:33:52;19.90;99.90
19665;DHT22;9980;51.020;7.772;2023-08-01T03:36:19;19.90;99.90
19665;DHT22;9980;51.020;7.772;2023-08-01T03:38:46;19.80;99.90
19665;DHT22;9980;51.020;7.772;2023-08-01T03:41:13;19.80;99.90
19665;DHT22;9980;51.020;7.772;2023-08-01T03:43:40;19.80;99.90
19665;DHT22;9980;51.020;7.772;2023-08-01T03:46:09;19.80;99.90
19665;DHT22;9980;51.020;7.772;2023-08-01T03:48:36;19.80;99.90
19665;DHT22;9980;51.020;7.772;2023-08-01T03:51:03;19.80;99.90
19665;DHT22;9980;51.020;7.772;2023-08-01T03:53:30;19.70;99.90
19665;DHT22;9980;51.020;7.772;2023-08-01T03:55:57;19.70;99.90
19665;DHT22;9980;51.020;7.772;2023-08-01T03:58:24;19.70;99.90
19665;DHT22;9980;51.020;7.772;2023-08-01T04:00:51;19.70;99.90
19665;DHT22;9980;51.020;7.772;2023-08-01T04:03:19;19.70;99.90
19665;DHT22;9980;51.020;7.772;2023-08-01T04:05:46;19.60;99.90
19665;DHT22;9980;51.020;7.772;2023-08-01T04:08:15;19.60;99.90
19665;DHT22;9980;51.020;7.772;2023-08-01T04:10:42;19.60;99.90
19665;DHT22;9980;51.020;7.772;2023-08-01T04:13:09;19.50;99.90
19665;DHT22;9980;51.020;7.772;2023-08-01T04:15:36;19.50;99.90
19665;DHT22;9980;51.020;7.772;2023-08-01T04:18:03;19.50;99.90
19665;DHT22;9980;51.020;7.772;2023-08-01T04:20:30;19.50;99.90
19665;DHT22;9980;51.020;7.772;2023-08-01T04:23:00;19.50;99.90
19665;DHT22;9980;51.020;7.772;2023-08-01T04:25:27;19.50;99.90
19665;DHT22;9980;51.020;7.772;2023-08-01T04:27:54;19.50;99.90
19665;DHT22;9980;51.020;7.772;2023-08-01T04:30:21;19.40;99.90
19665;DHT22;9980;51.020;7.772;2023-08-01T04:32:48;19.40;99.90
19665;DHT22;9980;51.020;7.772;2023-08-01T04:35:15;19.40;99.90
19665;DHT22;9980;51.020;7.772;2023-08-01T04:37:42;19.40;99.90
19665;DHT22;9980;51.020;7.772;2023-08-01T04:40:09;19.30;99.90
19665;DHT22;9980;51.020;7.772;2023-08-01T04:42:36;19.30;99.90
19665;DHT22;9980;51.020;7.772;2023-08-01T04:45:04;19.30;99.90
19665;DHT22;9980;51.020;7.772;2023-08-01T04:47:33;19.40;99.90
19665;DHT22;9980;51.020;7.772;2023-08-01T04:50:00;19.30;99.90
19665;DHT22;9980;51.020;7.772;2023-08-01T04:52:27;19.30;99.90
19665;DHT22;9980;51.020;7.772;2023-08-01T04:54:53;19.30;99.90
19665;DHT22;9980;51.020;7.772;2023-08-01T04:57:20;19.30;99.90
19665;DHT22;9980;51.020;7.772;2023-08-01T04:59:47;19.30;99.90
19665;DHT22;9980;51.020;7.772;2023-08-01T05:02:14;19.30;99.90
19665;DHT22;9980;51.020;7.772;2023-08-01T05:04:41;19.20;99.90
19665;DHT22;9980;51.020;7.772;2023-08-01T05:07:08;19.20;99.90
19665;DHT22;9980;51.020;7.772;2023-08-01T05:09:35;19.20;99.90
19665;DHT22;9980;51.020;7.772;2023-08-01T05:12:02;19.10;99.90
19665;DHT22;9980;51.020;7.772;2023-08-01T05:14:31;19.10;99.90
19665;DHT22;9980;51.020;7.772;2023-08-01T05:16:58;19.10;99.90
19665;DHT22;9980;51.020;7.772;2023-08-01T05:19:25;19.10;99.90
19665;DHT22;9980;51.020;7.772;2023-08-01T05:21:52;19.10;99.90
19665;DHT22;9980;51.020;7.772;2023-08-01T05:24:19;19.00;99.90
19665;DHT22;9980;51.020;7.772;2023-08-01T05:26:46;19.10;99.90
19665;DHT22;9980;51.020;7.772;2023-08-01T05:29:13;19.00;99.90
19665;DHT22;9980;51.020;7.772;2023-08-01T05:31:40;19.00;99.90
19665;DHT22;9980;51.020;7.772;2023-08-01T05:34:07;19.00;99.90
19665;DHT22;9980;51.020;7.772;2023-08-01T05:36:36;19.00;99.90
19665;DHT22;9980;51.020;7.772;2023-08-01T05:39:04;19.00;99.90
19665;DHT22;9980;51.020;7.772;2023-08-01T05:41:31;18.90;99.90
19665;DHT22;9980;51.020;7.772;2023-08-01T05:43:58;18.90;99.90
19665;DHT22;9980;51.020;7.772;2023-08-01T05:46:25;18.90;99.90
19665;DHT22;9980;51.020;7.772;2023-08-01T05:48:52;18.90;99.90
19665;DHT22;9980;51.020;7.772;2023-08-01T05:51:19;18.90;99.90
19665;DHT22;9980;51.020;7.772;2023-08-01T05:53:46;18.90;99.90
19665;DHT22;9980;51.020;7.772;2023-08-01T05:56:13;18.90;99.90
19665;DHT22;9980;51.020;7.772;2023-08-01T05:58:40;18.90;99.90
19665;DHT22;9980;51.020;7.772;2023-08-01T06:01:09;18.90;99.90
19665;DHT22;9980;51.020;7.772;2023-08-01T06:03:37;18.80;99.90
19665;DHT22;9980;51.020;7.772;2023-08-01T06:06:05;18.80;99.90
19665;DHT22;9980;51.020;7.772;2023-08-01T06:08:32;18.80;99.90
19665;DHT22;9980;51.020;7.772;2023-08-01T06:10:59;18.80;99.90
19665;DHT22;9980;51.020;7.772;2023-08-01T06:13:25;18.80;99.90
19665;DHT22;9980;51.020;7.772;2023-08-01T06:15:53;18.80;99.90
19665;DHT22;9980;51.020;7.772;2023-08-01T06:18:20;18.80;99.90
19665;DHT22;9980;51.020;7.772;2023-08-01T06:20:47;18.80;99.90
19665;DHT22;9980;51.020;7.772;2023-08-01T06:23:14;18.80;99.90
19665;DHT22;9980;51.020;7.772;2023-08-01T06:25:40;18.80;99.90
19665;DHT22;9980;51.020;7.772;2023-08-01T06:28:07;18.80;99.90
19665;DHT22;9980;51.020;7.772;2023-08-01T06:30:34;18.90;99.90
19665;DHT22;9980;51.020;7.772;2023-08-01T06:33:01;18.90;99.90
19665;DHT22;9980;51.020;7.772;2023-08-01T06:35:28;18.90;99.90
19665;DHT22;9980;51.020;7.772;2023-08-01T06:37:55;18.90;99.90
19665;DHT22;9980;51.020;7.772;2023-08-01T06:40:22;18.90;99.90
19665;DHT22;9980;51.020;7.772;2023-08-01T06:42:49;18.90;99.90
19665;DHT22;9980;51.020;7.772;2023-08-01T06:45:16;18.90;99.90
19665;DHT22;9980;51.020;7.772;2023-08-01T06:47:43;18.90;99.90
19665;DHT22;9980;51.020;7.772;2023-08-01T06:50:10;18.90;99.90
19665;DHT22;9980;51.020;7.772;2023-08-01T06:52:37;18.90;99.90
19665;DHT22;9980;51.020;7.772;2023-08-01T06:55:04;18.90;99.90
19665;DHT22;9980;51.020;7.772;2023-08-01T06:57:31;18.90;99.90
19665;DHT22;9980;51.020;7.772;2023-08-01T06:59:58;18.80;99.90
19665;DHT22;9980;51.020;7.772;2023-08-01T07:02:25;18.80;99.90
19665;DHT22;9980;51.020;7.772;2023-08-01T07:04:53;18.90;99.90
19665;DHT22;9980;51.020;7.772;2023-08-01T07:07:19;18.80;99.90
19665;DHT22;9980;51.020;7.772;2023-08-01T07:09:46;18.90;99.90
19665;DHT22;9980;51.020;7.772;2023-08-01T07:12:13;18.90;99.90
19665;DHT22;9980;51.020;7.772;2023-08-01T07:14:41;18.90;99.90
19665;DHT22;9980;51.020;7.772;2023-08-01T07:17:07;18.90;99.90
19665;DHT22;9980;51.020;7.772;2023-08-01T07:19:34;18.90;99.90
19665;DHT22;9980;51.020;7.772;2023-08-01T07:22:01;18.90;99.90
19665;DHT22;9980;51.020;7.772;2023-08-01T07:24:28;18.90;99.90
19665;DHT22;9980;51.020;7.772;2023-08-01T07:26:55;18.90;99.90
19665;DHT22;9980;51.020;7.772;2023-08-01T07:29:22;19.00;99.90
19665;DHT22;9980;51.020;7.772;2023-08-01T07:31:49;18.90;99.90
19665;DHT22;9980;51.020;7.772;2023-08-01T07:34:16;19.00;99.90
19665;DHT22;9980;51.020;7.772;2023-08-01T07:36:43;19.00;99.90
19665;DHT22;9980;51.020;7.772;2023-08-01T07:39:10;19.00;99.90
19665;DHT22;9980;51.020;7.772;2023-08-01T07:41:37;19.00;99.90
19665;DHT22;9980;51.020;7.772;2023-08-01T07:44:04;19.00;99.90
19665;DHT22;9980;51.020;7.772;2023-08-01T07:46:32;19.00;99.90
19665;DHT22;9980;51.020;7.772;2023-08-01T07:48:59;19.00;99.90
19665;DHT22;9980;51.020;7.772;2023-08-01T07:51:26;19.00;99.90
19665;DHT22;9980;51.020;7.772;2023-08-01T07:53:53;19.00;99.90
19665;DHT22;9980;51.020;7.772;2023-08-01T07:56:21;19.10;99.90
19665;DHT22;9980;51.020;7.772;2023-08-01T07:58:48;19.20;99.90
19665;DHT22;9980;51.020;7.772;2023-08-01T08:01:14;19.30;99.90
19665;DHT22;9980;51.020;7.772;2023-08-01T08:03:41;19.40;99.90
19665;DHT22;9980;51.020;7.772;2023-08-01T08:06:08;19.60;99.90
19665;DHT22;9980;51.020;7.772;2023-08-01T08:08:35;19.60;99.90
19665;DHT22;9980;51.020;7.772;2023-08-01T08:11:03;19.70;99.90
19665;DHT22;9980;51.020;7.772;2023-08-01T08:13:30;19.80;99.90
19665;DHT22;9980;51.020;7.772;2023-08-01T08:15:58;19.80;99.90
19665;DHT22;9980;51.020;7.772;2023-08-01T08:18:25;19.90;99.90
19665;DHT22;9980;51.020;7.772;2023-08-01T08:20:53;19.90;99.90
19665;DHT22;9980;51.020;7.772;2023-08-01T08:23:20;19.90;99.90
19665;DHT22;9980;51.020;7.772;2023-08-01T08:25:47;19.90;99.90
19665;DHT22;9980;51.020;7.772;2023-08-01T08:28:14;19.90;99.90
19665;DHT22;9980;51.020;7.772;2023-08-01T08:30:53;19.90;99.90
19665;DHT22;9980;51.020;7.772;2023-08-01T08:33:20;20.00;99.90
19665;DHT22;9980;51.020;7.772;2023-08-01T08:35:51;20.00;99.90
19665;DHT22;9980;51.020;7.772;2023-08-01T08:38:18;20.00;99.90
19665;DHT22;9980;51.020;7.772;2023-08-01T08:40:57;20.10;99.90
19665;DHT22;9980;51.020;7.772;2023-08-01T08:43:44;20.10;99.90
19665;DHT22;9980;51.020;7.772;2023-08-01T08:46:15;20.30;99.90
19665;DHT22;9980;51.020;7.772;2023-08-01T08:48:44;20.40;99.90
19665;DHT22;9980;51.020;7.772;2023-08-01T08:51:13;20.40;99.90
19665;DHT22;9980;51.020;7.772;2023-08-01T08:53:40;20.50;99.90
19665;DHT22;9980;51.020;7.772;2023-08-01T08:56:09;20.60;99.90
19665;DHT22;9980;51.020;7.772;2023-08-01T08:58:37;20.50;99.90
19665;DHT22;9980;51.020;7.772;2023-08-01T09:01:06;20.60;99.90
19665;DHT22;9980;51.020;7.772;2023-08-01T09:03:34;20.60;99.90
19665;DHT22;9980;51.020;7.772;2023-08-01T09:06:14;20.70;99.90
19665;DHT22;9980;51.020;7.772;2023-08-01T09:08:51;20.70;99.90
19665;DHT22;9980;51.020;7.772;2023-08-01T09:11:21;20.80;99.90
19665;DHT22;9980;51.020;7.772;2023-08-01T09:13:48;20.80;99.90
19665;DHT22;9980;51.020;7.772;2023-08-01T09:16:17;20.80;99.90
19665;DHT22;9980;51.020;7.772;2023-08-01T09:18:48;20.80;99.90
19665;DHT22;9980;51.020;7.772;2023-08-01T09:21:20;20.80;99.90
19665;DHT22;9980;51.020;7.772;2023-08-01T09:23:48;20.80;99.90
19665;DHT22;9980;51.020;7.772;2023-08-01T09:26:17;20.90;99.90
19665;DHT22;9980;51.020;7.772;2023-08-01T09:28:57;20.90;99.90
19665;DHT22;9980;51.020;7.772;2023-08-01T09:31:35;20.90;99.90
19665;DHT22;9980;51.020;7.772;2023-08-01T09:34:05;21.00;99.90
19665;DHT22;9980;51.020;7.772;2023-08-01T09:36:33;21.10;99.90
19665;DHT22;9980;51.020;7.772;2023-08-01T09:39:04;21.10;99.90
19665;DHT22;9980;51.020;7.772;2023-08-01T09:41:31;21.20;99.90
19665;DHT22;9980;51.020;7.772;2023-08-01T09:43:58;21.20;99.90
19665;DHT22;9980;51.020;7.772;2023-08-01T09:46:25;21.20;99.90
19665;DHT22;9980;51.020;7.772;2023-08-01T09:48:52;21.30;99.90
19665;DHT22;9980;51.020;7.772;2023-08-01T09:51:19;21.30;99.90
19665;DHT22;9980;51.020;7.772;2023-08-01T09:53:55;21.30;99.90
19665;DHT22;9980;51.020;7.772;2023-08-01T09:56:24;21.30;99.90
19665;DHT22;9980;51.020;7.772;2023-08-01T09:58:55;21.30;99.90
19665;DHT22;9980;51.020;7.772;2023-08-01T10:01:24;21.30;99.90
19665;DHT22;9980;51.020;7.772;2023-08-01T10:03:53;21.30;99.90
19665;DHT22;9980;51.020;7.772;2023-08-01T10:06:24;21.30;99.90
19665;DHT22;9980;51.020;7.772;2023-08-01T10:08:58;21.30;99.90
19665;DHT22;9980;51.020;7.772;2023-08-01T10:11:27;21.40;99.90
19665;DHT22;9980;51.020;7.772;2023-08-01T10:13:57;21.40;99.90
19665;DHT22;9980;51.020;7.772;2023-08-01T10:16:24;21.50;99.90
19665;DHT22;9980;51.020;7.772;2023-08-01T10:18:51;21.60;99.90
19665;DHT22;9980;51.020;7.772;2023-08-01T10:21:20;21.70;99.90
19665;DHT22;9980;51.020;7.772;2023-08-01T10:23:49;21.80;99.90
19665;DHT22;9980;51.020;7.772;2023-08-01T10:26:16;21.80;99.90
19665;DHT22;9980;51.020;7.772;2023-08-01T10:28:51;21.80;99.90
19665;DHT22;9980;51.020;7.772;2023-08-01T10:31:20;21.90;99.90
19665;DHT22;9980;51.020;7.772;2023-08-01T10:33:49;21.90;99.90
19665;DHT22;9980;51.020;7.772;2023-08-01T10:36:19;22.00;99.90
19665;DHT22;9980;51.020;7.772;2023-08-01T10:38:59;22.10;99.90
19665;DHT22;9980;51.020;7.772;2023-08-01T10:41:32;22.20;99.90
19665;DHT22;9980;51.020;7.772;2023-08-01T10:44:13;22.20;99.90
19665;DHT22;9980;51.020;7.772;2023-08-01T10:46:59;22.20;99.90
19665;DHT22;9980;51.020;7.772;2023-08-01T10:49:40;22.20;99.90
19665;DHT22;9980;51.020;7.772;2023-08-01T10:52:23;22.30;99.90
19665;DHT22;9980;51.020;7.772;2023-08-01T10:55:00;22.30;99.90
19665;DHT22;9980;51.020;7.772;2023-08-01T10:57:35;22.30;99.90
19665;DHT22;9980;51.020;7.772;2023-08-01T11:00:06;22.30;99.90
19665;DHT22;9980;51.020;7.772;2023-08-01T11:02:38;22.30;99.90
19665;DHT22;9980;51.020;7.772;2023-08-01T11:05:07;22.40;99.90
19665;DHT22;9980;51.020;7.772;2023-08-01T11:07:34;22.40;99.90
19665;DHT22;9980;51.020;7.772;2023-08-01T11:10:10;22.60;99.90
19665;DHT22;9980;51.020;7.772;2023-08-01T11:12:41;22.70;99.90
19665;DHT22;9980;51.020;7.772;2023-08-01T11:15:13;22.80;99.90
19665;DHT22;9980;51.020;7.772;2023-08-01T11:17:46;22.90;99.90
19665;DHT22;9980;51.020;7.772;2023-08-01T11:20:20;22.90;99.90
19665;DHT22;9980;51.020;7.772;2023-08-01T11:22:59;23.00;99.90
19665;DHT22;9980;51.020;7.772;2023-08-01T11:25:38;23.00;99.90
19665;DHT22;9980;51.020;7.772;2023-08-01T11:28:15;23.00;99.90
19665;DHT22;9980;51.020;7.772;2023-08-01T11:30:43;23.10;99.90
19665;DHT22;9980;51.020;7.772;2023-08-01T11:33:22;23.10;99.90
19665;DHT22;9980;51.020;7.772;2023-08-01T11:35:54;23.10;99.90
19665;DHT22;9980;51.020;7.772;2023-08-01T11:38:31;23.10;99.90
19665;DHT22;9980;51.020;7.772;2023-08-01T11:41:04;23.20;99.90
19665;DHT22;9980;51.020;7.772;2023-08-01T11:43:42;23.30;99.90
19665;DHT22;9980;51.020;7.772;2023-08-01T11:46:10;23.40;99.90
19665;DHT22;9980;51.020;7.772;2023-08-01T11:48:37;23.40;99.90
19665;DHT22;9980;51.020;7.772;2023-08-01T11:51:04;23.60;99.90
19665;DHT22;9980;51.020;7.772;2023-08-01T11:53:31;23.70;99.90
19665;DHT22;9980;51.020;7.772;2023-08-01T11:56:06;23.80;99.90
19665;DHT22;9980;51.020;7.772;2023-08-01T11:58:36;24.00;99.90
19665;DHT22;9980;51.020;7.772;2023-08-01T12:01:12;24.10;99.90
19665;DHT22;9980;51.020;7.772;2023-08-01T12:03:51;24.30;99.90
19665;DHT22;9980;51.020;7.772;2023-08-01T12:06:22;24.50;99.90
19665;DHT22;9980;51.020;7.772;2023-08-01T12:08:51;24.60;99.30
19665;DHT22;9980;51.020;7.772;2023-08-01T12:11:21;24.70;98.50
19665;DHT22;9980;51.020;7.772;2023-08-01T12:14:10;24.80;98.10
19665;DHT22;9980;51.020;7.772;2023-08-01T12:16:39;24.80;97.80
19665;DHT22;9980;51.020;7.772;2023-08-01T12:19:09;24.80;98.10
19665;DHT22;9980;51.020;7.772;2023-08-01T12:21:36;24.80;98.30
19665;DHT22;9980;51.020;7.772;2023-08-01T12:24:03;24.70;98.60
19665;DHT22;9980;51.020;7.772;2023-08-01T12:26:33;24.70;98.50
19665;DHT22;9980;51.020;7.772;2023-08-01T12:29:01;24.60;99.10
19665;DHT22;9980;51.020;7.772;2023-08-01T12:31:28;24.60;99.00
19665;DHT22;9980;51.020;7.772;2023-08-01T12:33:58;24.60;99.40
19665;DHT22;9980;51.020;7.772;2023-08-01T12:36:25;24.60;99.30
19665;DHT22;9980;51.020;7.772;2023-08-01T12:38:53;24.70;99.20
19665;DHT22;9980;51.020;7.772;2023-08-01T12:41:20;24.70;98.80
19665;DHT22;9980;51.020;7.772;2023-08-01T12:43:47;24.80;98.40
19665;DHT22;9980;51.020;7.772;2023-08-01T12:46:14;24.70;97.60
19665;DHT22;9980;51.020;7.772;2023-08-01T12:48:41;24.70;97.90
19665;DHT22;9980;51.020;7.772;2023-08-01T12:51:08;24.70;98.20
19665;DHT22;9980;51.020;7.772;2023-08-01T12:53:35;24.80;97.80
19665;DHT22;9980;51.020;7.772;2023-08-01T12:56:06;24.80;98.10
19665;DHT22;9980;51.020;7.772;2023-08-01T12:58:34;24.80;98.10
19665;DHT22;9980;51.020;7.772;2023-08-01T13:01:02;24.80;97.30
19665;DHT22;9980;51.020;7.772;2023-08-01T13:03:32;24.80;96.90
19665;DHT22;9980;51.020;7.772;2023-08-01T13:05:59;24.80;96.50
19665;DHT22;9980;51.020;7.772;2023-08-01T13:08:26;24.70;96.80
19665;DHT22;9980;51.020;7.772;2023-08-01T13:10:56;24.70;96.90
19665;DHT22;9980;51.020;7.772;2023-08-01T13:13:23;24.50;96.70
19665;DHT22;9980;51.020;7.772;2023-08-01T13:15:50;24.40;97.00
19665;DHT22;9980;51.020;7.772;2023-08-01T13:18:16;24.30;96.90
19665;DHT22;9980;51.020;7.772;2023-08-01T13:20:44;24.10;97.50
19665;DHT22;9980;51.020;7.772;2023-08-01T13:23:11;24.00;97.80
19665;DHT22;9980;51.020;7.772;2023-08-01T13:25:38;23.90;98.20
19665;DHT22;9980;51.020;7.772;2023-08-01T13:28:05;23.80;98.30
19665;DHT22;9980;51.020;7.772;2023-08-01T13:30:32;23.70;98.30
19665;DHT22;9980;51.020;7.772;2023-08-01T13:33:00;23.70;97.90
19665;DHT22;9980;51.020;7.772;2023-08-01T13:35:27;23.60;98.00
19665;DHT22;9980;51.020;7.772;2023-08-01T13:37:54;23.50;97.90
19665;DHT22;9980;51.020;7.772;2023-08-01T13:40:21;23.40;98.10
19665;DHT22;9980;51.020;7.772;2023-08-01T13:42:48;23.30;97.80
19665;DHT22;9980;51.020;7.772;2023-08-01T13:45:15;23.10;97.60
19665;DHT22;9980;51.020;7.772;2023-08-01T13:47:44;23.00;97.90
19665;DHT22;9980;51.020;7.772;2023-08-01T13:50:13;22.90;98.10
19665;DHT22;9980;51.020;7.772;2023-08-01T13:52:40;22.70;98.20
19665;DHT22;9980;51.020;7.772;2023-08-01T13:55:07;22.60;98.40
19665;DHT22;9980;51.020;7.772;2023-08-01T13:57:35;22.50;98.50
19665;DHT22;9980;51.020;7.772;2023-08-01T14:00:03;22.40;99.10
19665;DHT22;9980;51.020;7.772;2023-08-01T14:02:43;22.30;99.10
19665;DHT22;9980;51.020;7.772;2023-08-01T14:05:11;22.20;99.50
19665;DHT22;9980;51.020;7.772;2023-08-01T14:07:38;22.20;99.90
19665;DHT22;9980;51.020;7.772;2023-08-01T14:10:10;22.20;99.90
19665;DHT22;9980;51.020;7.772;2023-08-01T14:12:37;22.20;99.90
19665;DHT22;9980;51.020;7.772;2023-08-01T14:15:05;22.10;99.90
19665;DHT22;9980;51.020;7.772;2023-08-01T14:17:32;22.10;99.90
19665;DHT22;9980;51.020;7.772;2023-08-01T14:20:00;22.10;99.90
19665;DHT22;9980;51.020;7.772;2023-08-01T14:22:27;22.10;99.90
19665;DHT22;9980;51.020;7.772;2023-08-01T14:24:54;22.20;99.90
19665;DHT22;9980;51.020;7.772;2023-08-01T14:27:22;22.20;99.90
19665;DHT22;9980;51.020;7.772;2023-08-01T14:29:49;22.20;99.90
19665;DHT22;9980;51.020;7.772;2023-08-01T14:32:18;22.20;99.90
19665;DHT22;9980;51.020;7.772;2023-08-01T14:34:46;22.20;99.90
19665;DHT22;9980;51.020;7.772;2023-08-01T14:37:13;22.30;99.90
19665;DHT22;9980;51.020;7.772;2023-08-01T14:39:40;22.30;99.90
19665;DHT22;9980;51.020;7.772;2023-08-01T14:42:07;22.30;99.90
19665;DHT22;9980;51.020;7.772;2023-08-01T14:44:34;22.40;99.90
19665;DHT22;9980;51.020;7.772;2023-08-01T14:47:02;22.50;99.90
19665;DHT22;9980;51.020;7.772;2023-08-01T14:49:29;22.60;99.90
19665;DHT22;9980;51.020;7.772;2023-08-01T14:51:56;22.70;99.90
19665;DHT22;9980;51.020;7.772;2023-08-01T14:54:23;22.80;99.90
19665;DHT22;9980;51.020;7.772;2023-08-01T14:56:56;22.90;99.90
19665;DHT22;9980;51.020;7.772;2023-08-01T14:59:23;23.00;99.90
19665;DHT22;9980;51.020;7.772;2023-08-01T15:01:50;23.10;99.90
19665;DHT22;9980;51.020;7.772;2023-08-01T15:04:17;23.20;99.90
19665;DHT22;9980;51.020;7.772;2023-08-01T15:06:44;23.30;99.90
19665;DHT22;9980;51.020;7.772;2023-08-01T15:09:12;23.30;99.90
19665;DHT22;9980;51.020;7.772;2023-08-01T15:11:39;23.40;99.60
19665;DHT22;9980;51.020;7.772;2023-08-01T15:14:06;23.40;99.70
19665;DHT22;9980;51.020;7.772;2023-08-01T15:16:33;23.40;99.20
19665;DHT22;9980;51.020;7.772;2023-08-01T15:19:00;23.30;99.00
19665;DHT22;9980;51.020;7.772;2023-08-01T15:21:30;23.30;99.10
19665;DHT22;9980;51.020;7.772;2023-08-01T15:23:57;23.20;99.40
19665;DHT22;9980;51.020;7.772;2023-08-01T15:26:23;23.10;99.40
19665;DHT22;9980;51.020;7.772;2023-08-01T15:28:50;23.10;99.50
19665;DHT22;9980;51.020;7.772;2023-08-01T15:31:17;23.00;99.70
19665;DHT22;9980;51.020;7.772;2023-08-01T15:33:44;22.90;99.80
19665;DHT22;9980;51.020;7.772;2023-08-01T15:36:13;22.80;99.60
19665;DHT22;9980;51.020;7.772;2023-08-01T15:38:42;22.70;99.70
19665;DHT22;9980;51.020;7.772;2023-08-01T15:41:10;22.70;99.70
19665;DHT22;9980;51.020;7.772;2023-08-01T15:43:38;22.50;99.30
19665;DHT22;9980;51.020;7.772;2023-08-01T15:46:08;22.50;99.40
19665;DHT22;9980;51.020;7.772;2023-08-01T15:48:36;22.30;99.20
19665;DHT22;9980;51.020;7.772;2023-08-01T15:51:04;22.30;99.40
19665;DHT22;9980;51.020;7.772;2023-08-01T15:53:32;22.20;99.50